Time,TemperatureF,DewpointF,PressureIn,WindDirection,WindDirectionDegrees,WindSpeedMPH,WindSpeedGustMPH,Humidity,HourlyPrecipIn,Conditions,Clouds,dailyrainin,SoftwareType,DateUTC
2018-04-25 00:01:00,65.7,19.6,30.05,SSW,211,4.0,6.0,17,0.00,,,0.00,meteobridge,2018-04-25 07:01:00,
2018-04-25 00:07:00,65.7,19.6,30.05,SSW,210,4.0,4.0,17,0.00,,,0.00,meteobridge,2018-04-25 07:07:00,
2018-04-25 00:12:00,65.5,19.6,30.04,SW,214,4.9,6.0,17,0.00,,,0.00,meteobridge,2018-04-25 07:12:00,
2018-04-25 00:17:00,65.5,19.6,30.04,SW,224,2.9,6.0,17,0.00,,,0.00,meteobridge,2018-04-25 07:17:00,
2018-04-25 00:22:00,65.5,19.6,30.04,SW,225,2.0,4.0,17,0.00,,,0.00,meteobridge,2018-04-25 07:22:00,
2018-04-25 00:28:00,65.5,19.6,30.05,West,259,2.0,3.0,17,0.00,,,0.00,meteobridge,2018-04-25 07:28:00,
2018-04-25 00:33:00,65.1,19.2,30.04,SW,220,4.0,6.0,17,0.00,,,0.00,meteobridge,2018-04-25 07:33:00,
2018-04-25 00:38:00,65.1,19.2,30.04,WSW,238,2.0,3.0,17,0.00,,,0.00,meteobridge,2018-04-25 07:38:00,
2018-04-25 00:44:00,65.3,19.4,30.04,WSW,238,0.9,2.0,17,0.00,,,0.00,meteobridge,2018-04-25 07:44:00,
2018-04-25 00:49:00,65.5,19.6,30.04,WSW,238,2.0,3.0,17,0.00,,,0.00,meteobridge,2018-04-25 07:49:00,
2018-04-25 00:54:00,65.3,20.7,30.04,SW,234,0.0,3.0,18,0.00,,,0.00,meteobridge,2018-04-25 07:54:00,
2018-04-25 01:00:00,65.1,20.5,30.04,SW,234,0.0,0.0,18,0.00,,,0.00,meteobridge,2018-04-25 08:00:00,
2018-04-25 01:06:00,65.1,20.5,30.04,SW,234,0.9,2.0,18,0.00,,,0.00,meteobridge,2018-04-25 08:06:00,
2018-04-25 01:12:00,65.3,20.7,30.04,SW,234,2.0,3.0,18,0.00,,,0.00,meteobridge,2018-04-25 08:12:00,
2018-04-25 01:17:00,65.3,20.7,30.04,SW,234,0.9,4.0,18,0.00,,,0.00,meteobridge,2018-04-25 08:17:00,
2018-04-25 01:22:00,65.1,20.5,30.04,SW,234,0.0,1.0,18,0.00,,,0.00,meteobridge,2018-04-25 08:22:00,
2018-04-25 01:28:00,64.8,20.3,30.03,SW,235,2.9,3.0,18,0.00,,,0.00,meteobridge,2018-04-25 08:28:00,
2018-04-25 01:33:00,64.4,19.9,30.03,WNW,284,0.0,1.0,18,0.00,,,0.00,meteobridge,2018-04-25 08:33:00,
2018-04-25 01:39:00,63.7,20.7,30.03,WNW,284,2.0,3.0,19,0.00,,,0.00,meteobridge,2018-04-25 08:39:00,
2018-04-25 01:45:00,63.3,20.3,30.03,WNW,283,0.0,1.0,19,0.00,,,0.00,meteobridge,2018-04-25 08:45:00,
2018-04-25 01:50:00,63.5,20.5,30.03,WNW,283,0.0,1.0,19,0.00,,,0.00,meteobridge,2018-04-25 08:50:00,
2018-04-25 01:56:00,64.0,21.0,30.03,WNW,284,0.9,4.0,19,0.00,,,0.00,meteobridge,2018-04-25 08:56:00,
2018-04-25 02:02:00,64.8,21.6,30.03,WNW,284,0.9,4.0,19,0.00,,,0.00,meteobridge,2018-04-25 09:02:00,
2018-04-25 02:07:00,64.8,21.6,30.03,WNW,288,2.9,3.0,19,0.00,,,0.00,meteobridge,2018-04-25 09:07:00,
2018-04-25 02:12:00,64.0,21.0,30.03,WNW,288,0.0,3.0,19,0.00,,,0.00,meteobridge,2018-04-25 09:12:00,
2018-04-25 02:18:00,63.5,21.7,30.03,WNW,288,0.9,2.0,20,0.00,,,0.00,meteobridge,2018-04-25 09:18:00,
2018-04-25 02:23:00,63.0,21.2,30.03,WNW,288,0.0,1.0,20,0.00,,,0.00,meteobridge,2018-04-25 09:23:00,
2018-04-25 02:29:00,62.2,20.7,30.03,WNW,288,0.0,0.0,20,0.00,,,0.00,meteobridge,2018-04-25 09:29:00,
2018-04-25 02:35:00,61.9,20.3,30.03,WNW,288,0.0,0.0,20,0.00,,,0.00,meteobridge,2018-04-25 09:35:00,
2018-04-25 02:41:00,61.3,19.9,30.04,WNW,288,0.0,0.0,20,0.00,,,0.00,meteobridge,2018-04-25 09:41:00,
2018-04-25 02:47:00,61.2,20.8,30.04,WNW,288,0.9,2.0,21,0.00,,,0.00,meteobridge,2018-04-25 09:47:00,
2018-04-25 02:52:00,61.2,20.8,30.04,West,275,4.0,5.0,21,0.00,,,0.00,meteobridge,2018-04-25 09:52:00,
2018-04-25 02:58:00,61.2,20.8,30.04,WSW,257,4.0,5.0,21,0.00,,,0.00,meteobridge,2018-04-25 09:58:00,
2018-04-25 03:03:00,60.8,20.7,30.03,WSW,250,4.9,6.0,21,0.00,,,0.00,meteobridge,2018-04-25 10:03:00,
2018-04-25 03:08:00,60.6,21.6,30.03,WSW,255,4.0,4.0,22,0.00,,,0.00,meteobridge,2018-04-25 10:08:00,
2018-04-25 03:13:00,60.6,21.6,30.03,West,275,2.0,5.0,22,0.00,,,0.00,meteobridge,2018-04-25 10:13:00,
2018-04-25 03:19:00,61.2,20.8,30.03,West,277,6.0,7.0,21,0.00,,,0.00,meteobridge,2018-04-25 10:19:00,
2018-04-25 03:24:00,61.3,21.0,30.03,WNW,293,4.0,7.0,21,0.00,,,0.00,meteobridge,2018-04-25 10:24:00,
2018-04-25 03:29:00,61.9,21.6,30.03,WNW,290,4.9,5.0,21,0.00,,,0.00,meteobridge,2018-04-25 10:29:00,
2018-04-25 03:34:00,61.9,21.6,30.04,East,80,0.0,2.0,21,0.00,,,0.00,meteobridge,2018-04-25 10:34:00,
2018-04-25 03:39:00,61.2,20.8,30.05,ENE,76,4.0,4.0,21,0.00,,,0.00,meteobridge,2018-04-25 10:39:00,
2018-04-25 03:44:00,59.9,21.0,30.06,West,259,6.0,8.0,22,0.00,,,0.00,meteobridge,2018-04-25 10:44:00,
2018-04-25 03:49:00,59.2,20.3,30.05,WSW,257,6.9,10.0,22,0.00,,,0.00,meteobridge,2018-04-25 10:49:00,
2018-04-25 03:55:00,59.0,21.2,30.05,West,259,8.1,11.0,23,0.00,,,0.00,meteobridge,2018-04-25 10:55:00,
2018-04-25 04:01:00,59.5,20.7,30.05,WNW,296,4.9,5.0,22,0.00,,,0.00,meteobridge,2018-04-25 11:01:00,
2018-04-25 04:06:00,60.3,21.2,30.06,West,269,6.0,8.0,22,0.00,,,0.00,meteobridge,2018-04-25 11:06:00,
2018-04-25 04:11:00,60.4,21.4,30.06,West,264,2.9,5.0,22,0.00,,,0.00,meteobridge,2018-04-25 11:11:00,
2018-04-25 04:16:00,61.2,20.8,30.06,WNW,300,4.0,5.0,21,0.00,,,0.00,meteobridge,2018-04-25 11:16:00,
2018-04-25 04:21:00,61.3,21.0,30.06,WNW,288,4.9,5.0,21,0.00,,,0.00,meteobridge,2018-04-25 11:21:00,
2018-04-25 04:27:00,61.2,20.8,30.06,West,275,4.0,6.0,21,0.00,,,0.00,meteobridge,2018-04-25 11:27:00,
2018-04-25 04:32:00,61.0,20.8,30.06,West,267,0.9,6.0,21,0.00,,,0.00,meteobridge,2018-04-25 11:32:00,
2018-04-25 04:37:00,60.6,20.5,30.06,WNW,283,4.9,6.0,21,0.00,,,0.00,meteobridge,2018-04-25 11:37:00,
2018-04-25 04:43:00,60.1,21.0,30.06,WNW,288,6.0,7.0,22,0.00,,,0.00,meteobridge,2018-04-25 11:43:00,
2018-04-25 04:48:00,59.5,20.7,30.06,West,281,4.0,6.0,22,0.00,,,0.00,meteobridge,2018-04-25 11:48:00,
2018-04-25 04:53:00,59.4,20.5,30.06,West,280,2.9,5.0,22,0.00,,,0.00,meteobridge,2018-04-25 11:53:00,
2018-04-25 04:59:00,59.5,20.7,30.06,West,281,4.9,5.0,22,0.00,,,0.00,meteobridge,2018-04-25 11:59:00,
2018-04-25 05:04:00,59.5,21.7,30.06,WNW,285,4.9,6.0,23,0.00,,,0.00,meteobridge,2018-04-25 12:04:00,
2018-04-25 05:09:00,59.4,21.6,30.06,West,276,4.9,6.0,23,0.00,,,0.00,meteobridge,2018-04-25 12:09:00,
2018-04-25 05:14:00,59.5,21.7,30.07,WNW,286,4.0,7.0,23,0.00,,,0.00,meteobridge,2018-04-25 12:14:00,
2018-04-25 05:19:00,59.5,21.7,30.07,West,273,4.0,6.0,23,0.00,,,0.00,meteobridge,2018-04-25 12:19:00,
2018-04-25 05:25:00,59.5,21.7,30.07,West,279,2.9,6.0,23,0.00,,,0.00,meteobridge,2018-04-25 12:25:00,
2018-04-25 05:30:00,59.5,21.7,30.07,West,281,6.0,8.0,23,0.00,,,0.00,meteobridge,2018-04-25 12:30:00,
2018-04-25 05:35:00,59.5,21.7,30.07,West,277,6.0,8.0,23,0.00,,,0.00,meteobridge,2018-04-25 12:35:00,
2018-04-25 05:40:00,59.7,21.9,30.07,WNW,290,6.0,8.0,23,0.00,,,0.00,meteobridge,2018-04-25 12:40:00,
2018-04-25 05:45:00,59.9,21.9,30.07,WNW,294,2.9,8.0,23,0.00,,,0.00,meteobridge,2018-04-25 12:45:00,
2018-04-25 05:50:00,60.1,22.1,30.08,West,276,4.0,8.0,23,0.00,,,0.00,meteobridge,2018-04-25 12:50:00,
2018-04-25 05:55:00,60.1,22.1,30.08,West,277,4.9,8.0,23,0.00,,,0.00,meteobridge,2018-04-25 12:55:00,
2018-04-25 06:01:00,60.3,22.3,30.08,West,281,4.9,7.0,23,0.00,,,0.00,meteobridge,2018-04-25 13:01:00,
2018-04-25 06:06:00,60.4,22.5,30.08,WNW,286,4.9,8.0,23,0.00,,,0.00,meteobridge,2018-04-25 13:06:00,
2018-04-25 06:11:00,60.6,22.6,30.08,West,276,6.9,9.0,23,0.00,,,0.00,meteobridge,2018-04-25 13:11:00,